createdAt,value
2022-11-29T00:01:21.801Z,2.92
2022-11-29T00:03:48.118Z,2.84
2022-11-29T00:06:15.545Z,2.86
2022-11-29T00:08:42.417Z,2.94
2022-11-29T00:11:10.480Z,2.94
2022-11-29T00:13:37.010Z,2.81
2022-11-29T00:16:07.458Z,2.92
2022-11-29T00:18:34.079Z,2.79
2022-11-29T00:21:05.021Z,2.72
2022-11-29T00:23:31.372Z,2.90
2022-11-29T00:26:02.743Z,2.92
2022-11-29T00:28:29.050Z,2.88
2022-11-29T00:30:55.426Z,2.92
2022-11-29T00:33:21.749Z,2.81
2022-11-29T00:35:48.089Z,2.56
2022-11-29T00:38:14.490Z,2.87
2022-11-29T00:40:40.825Z,2.88
2022-11-29T00:43:07.125Z,2.80
2022-11-29T00:45:33.639Z,2.73
2022-11-29T00:48:00.009Z,2.88
2022-11-29T00:50:26.378Z,2.85
2022-11-29T00:52:52.693Z,2.92
2022-11-29T00:55:19.021Z,2.99
2022-11-29T00:57:45.311Z,3.05
2022-11-29T01:00:11.927Z,2.95
2022-11-29T01:02:38.232Z,2.98
2022-11-29T01:05:04.674Z,2.95
2022-11-29T01:07:31.020Z,2.93
2022-11-29T01:09:57.394Z,2.89
2022-11-29T01:12:23.953Z,2.91
2022-11-29T01:14:50.274Z,3.00
2022-11-29T01:17:16.582Z,2.88
2022-11-29T01:19:47.831Z,2.98
2022-11-29T01:22:16.937Z,3.06
2022-11-29T01:24:43.421Z,2.96
2022-11-29T01:27:10.052Z,3.05
2022-11-29T01:29:36.358Z,3.06
2022-11-29T01:32:02.693Z,3.01
2022-11-29T01:34:29.002Z,3.02
2022-11-29T01:36:55.311Z,2.97
2022-11-29T01:39:21.644Z,3.02
2022-11-29T01:41:47.939Z,2.95
2022-11-29T01:44:14.194Z,3.06
2022-11-29T01:46:42.362Z,3.03
2022-11-29T01:49:11.550Z,2.79
2022-11-29T01:51:39.014Z,2.75
2022-11-29T01:54:05.880Z,2.84
2022-11-29T01:56:33.747Z,2.92
2022-11-29T01:59:01.870Z,2.93
2022-11-29T02:01:28.284Z,2.88
2022-11-29T02:03:54.766Z,2.92
2022-11-29T02:06:22.036Z,2.94
2022-11-29T02:08:48.353Z,3.10
2022-11-29T02:11:33.587Z,2.87
2022-11-29T02:14:24.077Z,3.03
2022-11-29T02:17:00.593Z,3.07
2022-11-29T02:19:29.857Z,2.95
2022-11-29T02:22:04.154Z,2.85
2022-11-29T02:24:48.421Z,2.99
2022-11-29T02:27:33.728Z,3.00
2022-11-29T02:30:15.317Z,3.01
2022-11-29T02:33:00.569Z,3.09
2022-11-29T02:35:38.672Z,3.10
2022-11-29T02:38:15.631Z,3.10
2022-11-29T02:41:06.729Z,3.05
2022-11-29T02:43:39.815Z,2.98
2022-11-29T02:46:16.732Z,3.03
2022-11-29T02:49:15.502Z,3.04
2022-11-29T02:52:00.311Z,2.84
2022-11-29T02:54:29.875Z,3.10
2022-11-29T02:57:04.483Z,2.90
2022-11-29T02:59:30.738Z,2.84
2022-11-29T03:02:03.188Z,3.06
2022-11-29T03:04:48.317Z,2.79
2022-11-29T03:07:25.708Z,2.78
2022-11-29T03:09:57.597Z,2.92
2022-11-29T03:12:32.164Z,3.10
2022-11-29T03:15:17.522Z,2.92
2022-11-29T03:18:19.483Z,2.83
2022-11-29T03:20:51.896Z,2.91
2022-11-29T03:23:28.159Z,2.91
2022-11-29T03:26:04.416Z,2.90
2022-11-29T03:28:53.921Z,2.94
2022-11-29T03:31:20.233Z,2.97
2022-11-29T03:34:04.810Z,2.95
2022-11-29T03:36:31.189Z,3.08
2022-11-29T03:39:02.767Z,2.91
2022-11-29T03:41:35.689Z,3.00
2022-11-29T03:44:34.504Z,3.11
2022-11-29T03:47:04.401Z,3.16
2022-11-29T03:49:33.651Z,3.07
2022-11-29T03:52:02.888Z,2.91
2022-11-29T03:54:35.126Z,2.88
2022-11-29T03:57:01.547Z,3.02
2022-11-29T03:59:32.819Z,2.80
2022-11-29T04:01:59.175Z,2.73
2022-11-29T04:04:37.550Z,2.80
2022-11-29T04:07:19.648Z,2.90
2022-11-29T04:10:03.284Z,3.02
2022-11-29T04:12:48.755Z,2.89
2022-11-29T04:15:27.254Z,2.84
2022-11-29T04:17:53.724Z,3.05
2022-11-29T04:20:20.036Z,2.92
2022-11-29T04:23:12.764Z,2.90
2022-11-29T04:25:55.326Z,2.88
2022-11-29T04:28:41.793Z,2.91
2022-11-29T04:31:26.899Z,2.96
2022-11-29T04:34:10.114Z,2.93
2022-11-29T04:36:39.471Z,2.85
2022-11-29T04:39:18.637Z,2.93
2022-11-29T04:42:00.705Z,2.99
2022-11-29T04:44:46.094Z,2.85
2022-11-29T04:47:23.891Z,2.89
2022-11-29T04:49:59.837Z,2.91
2022-11-29T04:52:32.208Z,2.97
2022-11-29T04:55:01.542Z,3.12
2022-11-29T04:57:33.924Z,2.97
2022-11-29T05:00:09.865Z,2.99
2022-11-29T05:02:54.023Z,2.83
2022-11-29T05:05:23.356Z,2.90
2022-11-29T05:08:01.946Z,2.90
2022-11-29T05:10:31.973Z,2.88
2022-11-29T05:13:06.020Z,2.80
2022-11-29T05:15:44.830Z,2.97
2022-11-29T05:18:34.597Z,2.97
2022-11-29T05:21:03.958Z,3.02
2022-11-29T05:23:45.935Z,2.99
2022-11-29T05:26:32.412Z,3.02
2022-11-29T05:29:02.996Z,2.94
2022-11-29T05:31:29.459Z,2.92
2022-11-29T05:34:21.429Z,2.93
2022-11-29T05:37:02.950Z,3.06
2022-11-29T05:39:38.442Z,3.00
2022-11-29T05:42:07.756Z,2.99
2022-11-29T05:44:50.981Z,2.99
2022-11-29T05:47:32.367Z,2.96
2022-11-29T05:50:01.797Z,2.96
2022-11-29T05:52:36.598Z,3.06
2022-11-29T05:55:17.059Z,2.99
2022-11-29T05:57:46.373Z,2.94
2022-11-29T06:00:14.564Z,3.06
2022-11-29T06:02:47.085Z,2.85
2022-11-29T06:05:28.874Z,2.72
2022-11-29T06:08:08.793Z,2.81
2022-11-29T06:10:37.572Z,2.75
2022-11-29T06:13:22.948Z,2.88
2022-11-29T06:16:04.822Z,2.74
2022-11-29T06:18:38.798Z,2.83
2022-11-29T06:21:16.321Z,2.82
2022-11-29T06:24:01.015Z,2.77
2022-11-29T06:26:49.099Z,2.92
2022-11-29T06:29:29.607Z,3.02
2022-11-29T06:32:03.299Z,2.90
2022-11-29T06:34:49.894Z,3.02
2022-11-29T06:37:19.934Z,2.83
2022-11-29T06:39:49.687Z,2.85
2022-11-29T06:42:16.324Z,2.79
2022-11-29T06:44:43.176Z,2.60
2022-11-29T06:47:25.912Z,2.72
2022-11-29T06:50:01.117Z,2.79
2022-11-29T06:52:34.345Z,2.83
2022-11-29T06:55:06.070Z,2.89
2022-11-29T06:57:44.522Z,2.90
2022-11-29T07:00:16.432Z,2.94
2022-11-29T07:02:57.928Z,2.88
2022-11-29T07:05:27.665Z,2.80
2022-11-29T07:07:55.660Z,2.76
2022-11-29T07:10:22.801Z,2.87
2022-11-29T07:12:50.329Z,2.91
2022-11-29T07:15:18.013Z,2.76
2022-11-29T07:18:02.578Z,2.80
2022-11-29T07:20:31.909Z,2.91
2022-11-29T07:23:22.403Z,2.73
2022-11-29T07:26:31.112Z,2.86
2022-11-29T07:29:07.811Z,2.80
2022-11-29T07:31:53.099Z,2.94
2022-11-29T07:34:25.502Z,2.84
2022-11-29T07:37:10.713Z,2.83
2022-11-29T07:39:42.467Z,2.98
2022-11-29T07:42:16.141Z,2.82
2022-11-29T07:44:55.914Z,2.92
2022-11-29T07:47:22.538Z,3.02
2022-11-29T07:49:48.986Z,3.02
2022-11-29T07:52:16.431Z,3.11
2022-11-29T07:54:43.439Z,3.06
2022-11-29T07:57:10.238Z,3.14
2022-11-29T07:59:37.982Z,2.85
2022-11-29T08:02:10.134Z,2.85
2022-11-29T08:04:47.114Z,3.03
2022-11-29T08:07:13.590Z,3.13
2022-11-29T08:09:39.904Z,3.26
2022-11-29T08:12:06.455Z,3.07
2022-11-29T08:14:33.385Z,3.11
2022-11-29T08:16:59.771Z,3.28
2022-11-29T08:19:26.086Z,3.30
2022-11-29T08:21:52.493Z,3.13
2022-11-29T08:24:18.898Z,3.29
2022-11-29T08:26:45.293Z,3.37
2022-11-29T08:29:11.750Z,3.37
2022-11-29T08:31:38.477Z,3.27
2022-11-29T08:34:05.675Z,3.14
2022-11-29T08:36:32.462Z,3.26
2022-11-29T08:39:09.156Z,3.30
2022-11-29T08:41:36.505Z,3.38
2022-11-29T08:44:04.738Z,3.49
2022-11-29T08:46:49.957Z,3.70
2022-11-29T08:49:16.387Z,3.61
2022-11-29T08:51:42.753Z,3.60
2022-11-29T08:54:09.154Z,3.38
2022-11-29T08:59:22.802Z,3.46
2022-11-29T09:01:49.166Z,3.76
2022-11-29T09:04:17.095Z,3.71
2022-11-29T09:06:44.419Z,3.82
2022-11-29T09:09:10.788Z,4.02
2022-11-29T09:11:37.243Z,3.93
2022-11-29T09:14:04.887Z,4.00
2022-11-29T09:16:33.512Z,4.08
2022-11-29T09:19:00.167Z,4.05
2022-11-29T09:21:30.363Z,4.15
2022-11-29T09:23:59.263Z,4.15
2022-11-29T09:26:27.562Z,4.00
2022-11-29T09:28:54.102Z,4.10
2022-11-29T09:31:21.398Z,3.97
2022-11-29T09:33:48.301Z,3.99
2022-11-29T09:36:14.830Z,3.98
2022-11-29T09:38:41.265Z,3.96
2022-11-29T09:41:26.066Z,3.93
2022-11-29T09:44:12.658Z,4.09
2022-11-29T09:46:45.542Z,4.04
2022-11-29T09:49:18.104Z,4.05
2022-11-29T09:51:54.629Z,3.99
2022-11-29T09:54:29.180Z,4.25
2022-11-29T09:56:57.252Z,4.21
2022-11-29T09:59:31.721Z,4.34
2022-11-29T10:01:58.405Z,4.60
2022-11-29T10:04:27.452Z,4.79
2022-11-29T10:07:12.773Z,4.58
2022-11-29T10:09:44.132Z,4.56
2022-11-29T10:49:37.951Z,4.73
2022-11-29T10:52:05.417Z,4.67
2022-11-29T10:54:58.743Z,4.65
2022-11-29T10:57:25.270Z,4.53
2022-11-29T10:59:59.039Z,4.55
2022-11-29T11:02:25.709Z,4.27
2022-11-29T11:04:52.042Z,4.33
2022-11-29T11:07:27.629Z,4.74
2022-11-29T11:20:31.681Z,4.49
2022-11-29T11:26:26.641Z,4.38
2022-11-29T11:32:20.964Z,4.14
2022-11-29T11:38:23.098Z,4.09
2022-11-29T11:44:58.423Z,4.27
2022-11-29T11:47:21.194Z,4.25
2022-11-29T11:49:47.464Z,4.33
2022-11-29T11:52:17.088Z,4.37
2022-11-29T11:54:45.428Z,4.49
2022-11-29T11:57:16.764Z,4.27
2022-11-29T11:59:47.651Z,4.22
2022-11-29T12:02:36.117Z,4.22
2022-11-29T12:05:05.179Z,4.23
2022-11-29T12:08:06.672Z,4.26
2022-11-29T12:10:28.252Z,4.43
2022-11-29T12:12:56.613Z,4.43
2022-11-29T12:15:29.497Z,4.51
2022-11-29T12:18:04.963Z,4.66
2022-11-29T12:20:50.969Z,4.35
2022-11-29T12:23:27.157Z,4.49
2022-11-29T12:25:57.240Z,4.45
2022-11-29T12:28:31.875Z,4.26
2022-11-29T12:30:58.162Z,4.20
2022-11-29T12:33:43.466Z,4.31
2022-11-29T12:36:27.186Z,4.31
2022-11-29T12:39:06.506Z,4.44
2022-11-29T12:41:36.956Z,4.32
2022-11-29T12:44:22.228Z,4.31
2022-11-29T12:47:02.124Z,4.26
2022-11-29T12:49:51.859Z,4.22
2022-11-29T12:52:22.208Z,3.94
2022-11-29T12:54:57.214Z,4.02
2022-11-29T12:57:41.942Z,4.26
2022-11-29T13:00:12.791Z,4.00
2022-11-29T13:02:54.432Z,4.12
2022-11-29T13:05:24.600Z,4.10
2022-11-29T13:08:09.755Z,4.13
2022-11-29T13:10:45.152Z,4.40
2022-11-29T13:13:37.425Z,4.26
2022-11-29T13:16:27.714Z,4.24
2022-11-29T13:19:07.189Z,4.07
2022-11-29T13:21:39.595Z,4.10
2022-11-29T13:24:09.748Z,4.15
2022-11-29T13:26:37.727Z,4.14
2022-11-29T13:29:04.580Z,4.07
2022-11-29T13:31:31.342Z,4.02
2022-11-29T13:34:03.640Z,4.17
2022-11-29T13:36:30.035Z,4.33
2022-11-29T13:39:15.988Z,4.32
2022-11-29T13:41:48.972Z,4.13
2022-11-29T13:44:38.173Z,4.03
2022-11-29T13:47:11.723Z,4.11
2022-11-29T13:49:57.370Z,4.22
2022-11-29T13:52:58.114Z,4.03
2022-11-29T13:55:31.515Z,4.23
2022-11-29T13:58:17.872Z,4.11
2022-11-29T14:00:44.508Z,4.00
2022-11-29T14:03:23.102Z,3.93
2022-11-29T14:05:56.572Z,4.08
2022-11-29T14:08:54.532Z,4.05
2022-11-29T14:11:40.698Z,4.14
2022-11-29T14:14:07.201Z,3.97
2022-11-29T14:23:39.055Z,4.14
2022-11-29T14:26:05.553Z,4.13
2022-11-29T14:35:43.106Z,4.10
2022-11-29T14:45:36.808Z,3.92
2022-11-29T14:48:05.459Z,4.06
2022-11-29T14:50:36.231Z,4.20
2022-11-29T14:53:04.084Z,4.19
2022-11-29T14:58:35.984Z,4.18
2022-11-29T15:01:09.561Z,4.21
2022-11-29T15:03:57.916Z,4.09
2022-11-29T15:06:26.043Z,4.23
2022-11-29T15:09:06.470Z,4.09
2022-11-29T15:25:52.054Z,3.99
2022-11-29T15:28:23.392Z,4.20
2022-11-29T15:37:36.698Z,3.95
2022-11-29T15:40:06.142Z,3.99
2022-11-29T15:43:02.038Z,4.14
2022-11-29T15:45:32.841Z,3.96
2022-11-29T15:48:12.416Z,3.90
2022-11-29T15:50:43.552Z,4.04
2022-11-29T15:53:15.565Z,4.18
2022-11-29T15:55:42.742Z,4.08
2022-11-29T15:58:12.882Z,4.03
2022-11-29T16:00:39.846Z,4.06
2022-11-29T16:03:07.842Z,3.90
2022-11-29T16:05:36.519Z,4.02
2022-11-29T16:08:21.322Z,3.98
2022-11-29T16:10:53.386Z,3.89
2022-11-29T16:13:25.920Z,3.97
2022-11-29T16:16:06.143Z,4.02
2022-11-29T16:22:02.171Z,3.98
2022-11-29T16:24:28.518Z,3.97
2022-11-29T16:26:55.255Z,3.82
2022-11-29T16:29:29.785Z,3.84
2022-11-29T16:31:56.340Z,3.79
2022-11-29T16:34:33.047Z,3.83
2022-11-29T16:37:01.191Z,3.69
2022-11-29T16:39:28.135Z,3.91
2022-11-29T16:42:13.213Z,3.99
2022-11-29T16:44:39.492Z,3.96
2022-11-29T16:47:43.820Z,3.77
2022-11-29T16:50:19.441Z,3.73
2022-11-29T16:52:49.732Z,3.87
2022-11-29T16:55:18.999Z,3.98
2022-11-29T16:57:46.013Z,3.76
2022-11-29T17:00:31.719Z,3.83
2022-11-29T17:02:58.460Z,3.92
2022-11-29T17:05:25.104Z,3.70
2022-11-29T17:07:51.605Z,3.70
2022-11-29T17:10:19.051Z,3.74
2022-11-29T17:12:48.179Z,3.75
2022-11-29T17:15:14.950Z,3.85
2022-11-29T17:17:42.411Z,3.65
2022-11-29T17:20:10.301Z,3.72
2022-11-29T17:22:36.696Z,3.95
2022-11-29T17:25:03.530Z,3.69
2022-11-29T17:27:29.832Z,3.63
2022-11-29T17:29:57.311Z,3.50
2022-11-29T17:32:26.787Z,3.67
2022-11-29T17:34:53.511Z,3.83
2022-11-29T17:37:19.941Z,3.91
2022-11-29T17:39:48.384Z,3.71
2022-11-29T17:42:14.932Z,3.77
2022-11-29T17:44:41.495Z,3.87
2022-11-29T17:47:07.882Z,3.83
2022-11-29T17:49:34.272Z,3.80
2022-11-29T17:52:00.644Z,3.84
2022-11-29T17:54:27.056Z,3.94
2022-11-29T17:56:53.365Z,3.99
2022-11-29T17:59:20.506Z,3.79
2022-11-29T18:01:47.409Z,3.91
2022-11-29T18:04:14.175Z,3.83
2022-11-29T18:06:40.559Z,3.92
2022-11-29T18:09:08.496Z,3.99
2022-11-29T18:11:47.987Z,3.87
2022-11-29T18:14:17.096Z,3.92
2022-11-29T18:16:45.522Z,3.91
2022-11-29T18:19:13.414Z,3.94
2022-11-29T18:21:39.750Z,3.79
2022-11-29T18:24:06.948Z,3.83
2022-11-29T18:26:34.289Z,3.69
2022-11-29T18:29:00.976Z,3.75
2022-11-29T18:31:28.883Z,3.75
2022-11-29T18:33:56.541Z,3.90
2022-11-29T18:36:46.206Z,3.88
2022-11-29T18:39:17.050Z,3.92
2022-11-29T18:41:46.839Z,3.88
2022-11-29T18:44:15.354Z,3.96
2022-11-29T18:46:45.652Z,3.92
2022-11-29T18:49:14.010Z,3.82
2022-11-29T18:51:43.053Z,3.70
2022-11-29T18:54:09.914Z,3.86
2022-11-29T18:56:36.648Z,3.89
2022-11-29T18:59:08.640Z,3.83
2022-11-29T19:01:41.111Z,3.88
2022-11-29T19:04:14.238Z,3.98
2022-11-29T19:06:41.437Z,4.07
2022-11-29T19:09:11.255Z,3.98
2022-11-29T19:11:37.789Z,3.82
2022-11-29T19:14:05.418Z,3.81
2022-11-29T19:17:20.533Z,3.75
2022-11-29T19:19:47.153Z,3.86
2022-11-29T19:22:13.885Z,3.84
2022-11-29T19:24:40.482Z,3.80
2022-11-29T19:27:07.027Z,3.78
2022-11-29T19:29:39.351Z,3.65
2022-11-29T19:32:08.454Z,3.83
2022-11-29T19:34:37.586Z,3.85
2022-11-29T19:37:04.001Z,3.90
2022-11-29T19:39:31.252Z,3.94
2022-11-29T19:41:57.740Z,3.92
2022-11-29T19:44:29.803Z,3.81
2022-11-29T19:46:56.462Z,4.04
2022-11-29T19:49:22.975Z,3.94
2022-11-29T19:51:49.353Z,3.90
2022-11-29T19:54:17.995Z,3.96
2022-11-29T19:56:44.478Z,3.76
2022-11-29T19:59:11.342Z,4.01
2022-11-29T20:01:42.671Z,4.03
2022-11-29T20:04:10.663Z,4.11
2022-11-29T20:06:37.580Z,4.16
2022-11-29T20:09:04.434Z,4.28
2022-11-29T20:11:31.225Z,4.19
2022-11-29T20:13:59.153Z,3.86
2022-11-29T20:16:28.943Z,3.77
2022-11-29T20:18:56.263Z,3.97
2022-11-29T20:21:24.351Z,4.05
2022-11-29T20:23:59.329Z,3.99
2022-11-29T20:26:26.976Z,3.95
2022-11-29T20:28:53.643Z,4.14
2022-11-29T20:31:22.941Z,4.09
2022-11-29T20:33:52.055Z,3.97
2022-11-29T20:36:37.287Z,3.88
2022-11-29T20:39:12.133Z,3.82
2022-11-29T20:41:38.801Z,3.90
2022-11-29T20:44:05.487Z,3.97
2022-11-29T20:46:32.235Z,3.88
2022-11-29T20:49:04.731Z,3.84
2022-11-29T20:51:37.147Z,3.92
2022-11-29T20:54:03.880Z,3.90
2022-11-29T20:56:47.756Z,4.07
2022-11-29T20:59:24.727Z,3.93
2022-11-29T21:01:51.550Z,3.83
2022-11-29T21:04:23.728Z,3.80
2022-11-29T21:06:50.526Z,3.79
2022-11-29T21:09:17.435Z,3.70
2022-11-29T21:11:44.172Z,3.76
2022-11-29T21:14:13.754Z,3.70
2022-11-29T21:16:40.474Z,3.83
2022-11-29T21:19:22.563Z,4.02
2022-11-29T21:21:51.922Z,3.87
2022-11-29T21:24:27.528Z,3.71
2022-11-29T21:26:57.522Z,3.84
2022-11-29T21:29:24.562Z,3.67
2022-11-29T21:31:53.358Z,3.76
2022-11-29T21:34:23.339Z,3.84
2022-11-29T21:36:54.549Z,3.76
2022-11-29T21:39:21.086Z,3.74
2022-11-29T21:41:47.556Z,3.69
2022-11-29T21:44:14.089Z,3.81
2022-11-29T21:46:40.567Z,3.83
2022-11-29T21:49:07.097Z,3.78
2022-11-29T21:51:33.604Z,3.83
2022-11-29T21:54:03.856Z,3.59
2022-11-29T21:56:30.433Z,3.78
2022-11-29T21:58:56.905Z,3.63
2022-11-29T22:01:23.524Z,3.75
2022-11-29T22:03:52.558Z,3.75
2022-11-29T22:06:20.461Z,3.77
2022-11-29T22:08:47.910Z,3.53
2022-11-29T22:11:15.630Z,3.71
2022-11-29T22:14:05.011Z,3.55
2022-11-29T22:16:31.410Z,3.74
2022-11-29T22:18:58.327Z,3.65
2022-11-29T22:21:24.873Z,3.60
2022-11-29T22:23:52.102Z,3.63
2022-11-29T22:26:18.504Z,3.69
2022-11-29T22:28:44.977Z,3.52
2022-11-29T22:31:12.242Z,3.63
2022-11-29T22:33:38.973Z,3.76
2022-11-29T22:36:06.946Z,3.78
2022-11-29T22:38:33.812Z,3.71
2022-11-29T22:41:01.279Z,3.86
2022-11-29T22:43:28.180Z,3.83
2022-11-29T22:45:54.729Z,3.81
2022-11-29T22:48:21.056Z,3.67
2022-11-29T22:50:47.419Z,3.68
2022-11-29T22:53:13.805Z,3.64
2022-11-29T22:55:40.149Z,3.73
2022-11-29T22:58:06.618Z,3.66
2022-11-29T23:00:34.933Z,3.70
2022-11-29T23:03:01.284Z,3.61
2022-11-29T23:05:32.099Z,3.62
2022-11-29T23:07:58.903Z,3.73
2022-11-29T23:10:25.307Z,3.64
2022-11-29T23:12:51.604Z,3.49
2022-11-29T23:15:17.927Z,3.72
2022-11-29T23:17:44.296Z,3.70
2022-11-29T23:20:10.723Z,3.93
2022-11-29T23:22:39.211Z,3.72
2022-11-29T23:25:06.904Z,3.65
2022-11-29T23:27:33.234Z,3.70
2022-11-29T23:29:59.619Z,3.76
2022-11-29T23:32:25.957Z,3.72
2022-11-29T23:34:52.314Z,3.73
2022-11-29T23:37:18.663Z,3.70
2022-11-29T23:39:45.079Z,3.73
2022-11-29T23:42:11.466Z,3.82
2022-11-29T23:44:37.823Z,3.61
2022-11-29T23:47:04.175Z,3.78
2022-11-29T23:49:30.857Z,3.90
2022-11-29T23:51:57.389Z,3.70
2022-11-29T23:54:23.732Z,3.72
2022-11-29T23:56:50.124Z,3.71
2022-11-29T23:59:16.512Z,3.86
